sensor_id;sensor_type;location;lat;lon;timestamp;temperature;humidity
14993;DHT22;7592;51.088;13.732;2023-05-02T00:02:35;14.70;99.90
14993;DHT22;7592;51.088;13.732;2023-05-02T00:07:27;14.70;99.90
14993;DHT22;7592;51.088;13.732;2023-05-02T00:12:19;14.70;99.90
14993;DHT22;7592;51.088;13.732;2023-05-02T00:17:18;14.70;99.90
14993;DHT22;7592;51.088;13.732;2023-05-02T00:22:12;14.60;99.90
14993;DHT22;7592;51.088;13.732;2023-05-02T00:27:05;14.60;99.90
14993;DHT22;7592;51.088;13.732;2023-05-02T00:31:58;14.60;99.90
14993;DHT22;7592;51.088;13.732;2023-05-02T00:36:50;14.60;99.90
14993;DHT22;7592;51.088;13.732;2023-05-02T00:41:42;14.50;99.90
14993;DHT22;7592;51.088;13.732;2023-05-02T00:46:34;14.50;99.90
14993;DHT22;7592;51.088;13.732;2023-05-02T00:51:26;14.50;99.90
14993;DHT22;7592;51.088;13.732;2023-05-02T00:56:19;14.50;99.90
14993;DHT22;7592;51.088;13.732;2023-05-02T01:01:35;14.40;99.90
14993;DHT22;7592;51.088;13.732;2023-05-02T01:12:57;14.40;99.90
14993;DHT22;7592;51.088;13.732;2023-05-02T01:17:52;14.30;99.90
14993;DHT22;7592;51.088;13.732;2023-05-02T01:23:03;14.20;99.90
14993;DHT22;7592;51.088;13.732;2023-05-02T01:33:35;14.40;99.90
14993;DHT22;7592;51.088;13.732;2023-05-02T01:38:29;14.30;99.90
14993;DHT22;7592;51.088;13.732;2023-05-02T01:43:23;14.20;99.90
14993;DHT22;7592;51.088;13.732;2023-05-02T01:48:17;14.20;99.90
14993;DHT22;7592;51.088;13.732;2023-05-02T01:58:09;14.20;99.90
14993;DHT22;7592;51.088;13.732;2023-05-02T02:03:04;14.20;99.90
14993;DHT22;7592;51.088;13.732;2023-05-02T02:07:57;14.20;99.90
14993;DHT22;7592;51.088;13.732;2023-05-02T02:12:55;14.10;99.90
14993;DHT22;7592;51.088;13.732;2023-05-02T02:17:59;14.10;99.90
14993;DHT22;7592;51.088;13.732;2023-05-02T02:22:52;14.10;99.90
14993;DHT22;7592;51.088;13.732;2023-05-02T02:27:46;14.10;99.90
14993;DHT22;7592;51.088;13.732;2023-05-02T02:32:38;14.00;99.90
14993;DHT22;7592;51.088;13.732;2023-05-02T02:38:05;14.00;99.90
14993;DHT22;7592;51.088;13.732;2023-05-02T02:53:38;14.00;99.90
14993;DHT22;7592;51.088;13.732;2023-05-02T02:58:50;14.00;99.90
14993;DHT22;7592;51.088;13.732;2023-05-02T03:03:47;14.00;99.90
14993;DHT22;7592;51.088;13.732;2023-05-02T03:08:41;14.00;99.90
14993;DHT22;7592;51.088;13.732;2023-05-02T03:13:38;14.00;99.90
14993;DHT22;7592;51.088;13.732;2023-05-02T03:18:31;14.00;99.90
14993;DHT22;7592;51.088;13.732;2023-05-02T03:23:24;13.90;99.90
14993;DHT22;7592;51.088;13.732;2023-05-02T03:28:19;13.90;99.90
14993;DHT22;7592;51.088;13.732;2023-05-02T03:33:13;13.80;99.90
14993;DHT22;7592;51.088;13.732;2023-05-02T03:38:08;13.70;99.90
14993;DHT22;7592;51.088;13.732;2023-05-02T03:43:01;13.50;99.90
14993;DHT22;7592;51.088;13.732;2023-05-02T03:47:56;13.40;99.90
14993;DHT22;7592;51.088;13.732;2023-05-02T03:52:48;13.30;99.90
14993;DHT22;7592;51.088;13.732;2023-05-02T03:57:46;13.30;99.90
14993;DHT22;7592;51.088;13.732;2023-05-02T04:02:38;13.30;99.90
14993;DHT22;7592;51.088;13.732;2023-05-02T04:07:35;13.20;99.90
14993;DHT22;7592;51.088;13.732;2023-05-02T04:12:31;13.30;99.90
14993;DHT22;7592;51.088;13.732;2023-05-02T04:17:23;13.30;99.90
14993;DHT22;7592;51.088;13.732;2023-05-02T04:22:15;13.30;99.90
14993;DHT22;7592;51.088;13.732;2023-05-02T04:27:13;13.50;99.90
14993;DHT22;7592;51.088;13.732;2023-05-02T04:32:08;13.70;99.90
14993;DHT22;7592;51.088;13.732;2023-05-02T04:37:01;14.00;99.90
14993;DHT22;7592;51.088;13.732;2023-05-02T04:41:55;14.30;99.90
14993;DHT22;7592;51.088;13.732;2023-05-02T04:46:50;14.70;99.90
14993;DHT22;7592;51.088;13.732;2023-05-02T04:51:43;15.00;99.90
14993;DHT22;7592;51.088;13.732;2023-05-02T04:56:37;15.40;99.90
14993;DHT22;7592;51.088;13.732;2023-05-02T05:01:30;15.60;99.90
14993;DHT22;7592;51.088;13.732;2023-05-02T05:06:24;15.70;99.90
14993;DHT22;7592;51.088;13.732;2023-05-02T05:11:17;15.70;99.90
14993;DHT22;7592;51.088;13.732;2023-05-02T05:16:11;15.70;99.90
14993;DHT22;7592;51.088;13.732;2023-05-02T05:21:03;15.70;99.90
14993;DHT22;7592;51.088;13.732;2023-05-02T05:25:55;15.80;99.90
14993;DHT22;7592;51.088;13.732;2023-05-02T05:30:50;15.90;99.90
14993;DHT22;7592;51.088;13.732;2023-05-02T05:35:45;16.10;99.90
14993;DHT22;7592;51.088;13.732;2023-05-02T05:40:38;16.50;99.90
14993;DHT22;7592;51.088;13.732;2023-05-02T05:45:32;17.10;99.90
14993;DHT22;7592;51.088;13.732;2023-05-02T05:50:24;17.50;99.90
14993;DHT22;7592;51.088;13.732;2023-05-02T05:55:17;18.20;99.90
14993;DHT22;7592;51.088;13.732;2023-05-02T06:00:11;18.70;99.90
14993;DHT22;7592;51.088;13.732;2023-05-02T06:05:11;19.20;99.90
14993;DHT22;7592;51.088;13.732;2023-05-02T06:10:04;19.40;99.90
14993;DHT22;7592;51.088;13.732;2023-05-02T06:14:59;20.00;99.90
14993;DHT22;7592;51.088;13.732;2023-05-02T06:19:52;20.30;99.90
14993;DHT22;7592;51.088;13.732;2023-05-02T06:24:45;20.60;99.90
14993;DHT22;7592;51.088;13.732;2023-05-02T06:29:37;20.90;99.90
14993;DHT22;7592;51.088;13.732;2023-05-02T06:34:32;21.20;99.90
14993;DHT22;7592;51.088;13.732;2023-05-02T06:39:24;22.00;98.20
14993;DHT22;7592;51.088;13.732;2023-05-02T06:44:16;22.40;95.10
14993;DHT22;7592;51.088;13.732;2023-05-02T06:49:09;22.70;92.50
14993;DHT22;7592;51.088;13.732;2023-05-02T06:54:01;22.80;91.80
14993;DHT22;7592;51.088;13.732;2023-05-02T06:58:53;22.80;91.80
14993;DHT22;7592;51.088;13.732;2023-05-02T07:03:46;23.00;90.40
14993;DHT22;7592;51.088;13.732;2023-05-02T07:08:38;23.00;90.90
14993;DHT22;7592;51.088;13.732;2023-05-02T07:13:30;23.10;89.90
14993;DHT22;7592;51.088;13.732;2023-05-02T07:18:22;23.90;88.50
14993;DHT22;7592;51.088;13.732;2023-05-02T07:23:14;23.90;84.50
14993;DHT22;7592;51.088;13.732;2023-05-02T07:28:06;23.60;84.10
14993;DHT22;7592;51.088;13.732;2023-05-02T07:32:58;22.80;84.40
14993;DHT22;7592;51.088;13.732;2023-05-02T07:37:51;22.20;88.10
14993;DHT22;7592;51.088;13.732;2023-05-02T07:42:43;21.70;89.00
14993;DHT22;7592;51.088;13.732;2023-05-02T07:47:35;20.60;91.20
14993;DHT22;7592;51.088;13.732;2023-05-02T07:52:27;19.50;93.30
14993;DHT22;7592;51.088;13.732;2023-05-02T07:57:19;18.90;96.00
14993;DHT22;7592;51.088;13.732;2023-05-02T08:02:12;18.80;98.30
14993;DHT22;7592;51.088;13.732;2023-05-02T08:07:05;19.00;99.90
14993;DHT22;7592;51.088;13.732;2023-05-02T08:11:57;19.10;99.90
14993;DHT22;7592;51.088;13.732;2023-05-02T08:16:49;19.60;99.90
14993;DHT22;7592;51.088;13.732;2023-05-02T08:21:42;21.20;98.70
14993;DHT22;7592;51.088;13.732;2023-05-02T08:26:34;23.10;92.70
14993;DHT22;7592;51.088;13.732;2023-05-02T08:31:26;23.20;88.50
14993;DHT22;7592;51.088;13.732;2023-05-02T08:36:18;22.80;88.00
14993;DHT22;7592;51.088;13.732;2023-05-02T08:41:14;22.60;88.70
14993;DHT22;7592;51.088;13.732;2023-05-02T08:46:09;23.10;89.90
14993;DHT22;7592;51.088;13.732;2023-05-02T08:51:03;23.40;88.40
14993;DHT22;7592;51.088;13.732;2023-05-02T08:55:55;22.90;88.20
14993;DHT22;7592;51.088;13.732;2023-05-02T09:00:47;22.90;89.30
14993;DHT22;7592;51.088;13.732;2023-05-02T09:05:41;23.80;87.10
14993;DHT22;7592;51.088;13.732;2023-05-02T09:10:35;25.40;79.50
14993;DHT22;7592;51.088;13.732;2023-05-02T09:15:30;25.30;75.60
14993;DHT22;7592;51.088;13.732;2023-05-02T09:20:22;24.20;77.30
14993;DHT22;7592;51.088;13.732;2023-05-02T09:25:15;24.70;77.40
14993;DHT22;7592;51.088;13.732;2023-05-02T09:30:21;25.00;76.40
14993;DHT22;7592;51.088;13.732;2023-05-02T09:35:13;27.10;72.20
14993;DHT22;7592;51.088;13.732;2023-05-02T09:40:14;28.10;67.80
14993;DHT22;7592;51.088;13.732;2023-05-02T09:45:07;28.20;66.80
14993;DHT22;7592;51.088;13.732;2023-05-02T09:49:59;30.10;64.40
14993;DHT22;7592;51.088;13.732;2023-05-02T09:54:51;31.30;59.40
14993;DHT22;7592;51.088;13.732;2023-05-02T09:59:54;30.20;57.40
14993;DHT22;7592;51.088;13.732;2023-05-02T10:04:47;28.50;59.70
14993;DHT22;7592;51.088;13.732;2023-05-02T10:09:43;27.70;60.70
14993;DHT22;7592;51.088;13.732;2023-05-02T10:14:39;25.90;64.80
14993;DHT22;7592;51.088;13.732;2023-05-02T10:19:44;24.40;69.30
14993;DHT22;7592;51.088;13.732;2023-05-02T10:24:41;24.80;67.60
14993;DHT22;7592;51.088;13.732;2023-05-02T10:29:34;25.40;67.90
14993;DHT22;7592;51.088;13.732;2023-05-02T10:34:27;24.90;69.90
14993;DHT22;7592;51.088;13.732;2023-05-02T10:39:22;24.40;71.20
14993;DHT22;7592;51.088;13.732;2023-05-02T10:44:15;24.70;71.70
14993;DHT22;7592;51.088;13.732;2023-05-02T10:49:11;24.80;70.90
14993;DHT22;7592;51.088;13.732;2023-05-02T10:54:23;24.30;73.20
14993;DHT22;7592;51.088;13.732;2023-05-02T10:59:47;24.70;72.40
14993;DHT22;7592;51.088;13.732;2023-05-02T11:04:59;24.80;72.60
14993;DHT22;7592;51.088;13.732;2023-05-02T11:09:55;24.60;72.70
14993;DHT22;7592;51.088;13.732;2023-05-02T11:15:06;24.80;71.70
14993;DHT22;7592;51.088;13.732;2023-05-02T11:24:57;25.00;71.70
14993;DHT22;7592;51.088;13.732;2023-05-02T11:29:57;25.20;72.50
14993;DHT22;7592;51.088;13.732;2023-05-02T11:34:49;26.10;70.40
14993;DHT22;7592;51.088;13.732;2023-05-02T11:39:43;26.00;69.80
14993;DHT22;7592;51.088;13.732;2023-05-02T11:44:57;26.10;71.60
14993;DHT22;7592;51.088;13.732;2023-05-02T11:49:51;25.80;69.30
14993;DHT22;7592;51.088;13.732;2023-05-02T11:54:43;24.30;71.60
14993;DHT22;7592;51.088;13.732;2023-05-02T11:59:56;23.80;73.70
14993;DHT22;7592;51.088;13.732;2023-05-02T12:04:48;24.20;74.30
14993;DHT22;7592;51.088;13.732;2023-05-02T12:09:51;24.20;74.40
14993;DHT22;7592;51.088;13.732;2023-05-02T12:14:46;23.50;76.40
14993;DHT22;7592;51.088;13.732;2023-05-02T12:19:38;22.80;78.40
14993;DHT22;7592;51.088;13.732;2023-05-02T12:24:30;22.20;80.90
14993;DHT22;7592;51.088;13.732;2023-05-02T12:29:37;21.70;83.10
14993;DHT22;7592;51.088;13.732;2023-05-02T12:34:33;21.50;82.90
14993;DHT22;7592;51.088;13.732;2023-05-02T12:39:39;21.50;83.00
14993;DHT22;7592;51.088;13.732;2023-05-02T12:44:41;22.30;81.10
14993;DHT22;7592;51.088;13.732;2023-05-02T12:49:54;22.80;79.80
14993;DHT22;7592;51.088;13.732;2023-05-02T12:54:47;23.00;80.70
14993;DHT22;7592;51.088;13.732;2023-05-02T12:59:39;22.90;79.60
14993;DHT22;7592;51.088;13.732;2023-05-02T13:04:39;22.80;79.30
14993;DHT22;7592;51.088;13.732;2023-05-02T13:09:32;22.60;79.20
14993;DHT22;7592;51.088;13.732;2023-05-02T13:14:24;22.50;81.50
14993;DHT22;7592;51.088;13.732;2023-05-02T13:19:16;22.60;81.00
14993;DHT22;7592;51.088;13.732;2023-05-02T13:24:09;22.40;80.30
14993;DHT22;7592;51.088;13.732;2023-05-02T13:29:01;22.40;79.10
14993;DHT22;7592;51.088;13.732;2023-05-02T13:33:53;22.40;79.90
14993;DHT22;7592;51.088;13.732;2023-05-02T13:38:45;22.60;78.70
14993;DHT22;7592;51.088;13.732;2023-05-02T13:43:37;22.50;80.70
14993;DHT22;7592;51.088;13.732;2023-05-02T13:48:31;22.60;81.30
14993;DHT22;7592;51.088;13.732;2023-05-02T13:53:23;22.70;82.80
14993;DHT22;7592;51.088;13.732;2023-05-02T13:58:15;22.20;82.90
14993;DHT22;7592;51.088;13.732;2023-05-02T14:03:08;22.10;85.10
14993;DHT22;7592;51.088;13.732;2023-05-02T14:08:02;22.00;85.10
14993;DHT22;7592;51.088;13.732;2023-05-02T14:12:54;22.70;83.40
14993;DHT22;7592;51.088;13.732;2023-05-02T14:17:47;23.20;82.70
14993;DHT22;7592;51.088;13.732;2023-05-02T14:22:40;23.20;81.90
14993;DHT22;7592;51.088;13.732;2023-05-02T14:27:32;22.60;80.30
14993;DHT22;7592;51.088;13.732;2023-05-02T14:32:24;22.50;81.70
14993;DHT22;7592;51.088;13.732;2023-05-02T14:37:16;22.20;81.80
14993;DHT22;7592;51.088;13.732;2023-05-02T14:42:08;21.80;84.20
14993;DHT22;7592;51.088;13.732;2023-05-02T14:47:00;21.30;86.20
14993;DHT22;7592;51.088;13.732;2023-05-02T14:51:53;21.00;88.40
14993;DHT22;7592;51.088;13.732;2023-05-02T14:56:48;20.50;90.50
14993;DHT22;7592;51.088;13.732;2023-05-02T15:01:42;19.50;94.00
14993;DHT22;7592;51.088;13.732;2023-05-02T15:06:35;19.00;99.90
14993;DHT22;7592;51.088;13.732;2023-05-02T15:11:28;18.20;99.90
14993;DHT22;7592;51.088;13.732;2023-05-02T15:16:20;18.00;99.90
14993;DHT22;7592;51.088;13.732;2023-05-02T15:21:12;18.20;99.90
14993;DHT22;7592;51.088;13.732;2023-05-02T15:26:04;18.20;99.90
14993;DHT22;7592;51.088;13.732;2023-05-02T15:30:56;18.10;99.90
14993;DHT22;7592;51.088;13.732;2023-05-02T15:35:53;18.30;99.90
14993;DHT22;7592;51.088;13.732;2023-05-02T15:40:59;18.30;99.90
14993;DHT22;7592;51.088;13.732;2023-05-02T15:45:55;18.20;99.90
14993;DHT22;7592;51.088;13.732;2023-05-02T15:50:48;18.00;99.90
14993;DHT22;7592;51.088;13.732;2023-05-02T15:55:41;17.80;99.90
14993;DHT22;7592;51.088;13.732;2023-05-02T16:00:34;17.80;99.90
14993;DHT22;7592;51.088;13.732;2023-05-02T16:05:26;17.80;99.90
14993;DHT22;7592;51.088;13.732;2023-05-02T16:10:18;17.80;99.90
14993;DHT22;7592;51.088;13.732;2023-05-02T16:15:10;17.80;99.90
14993;DHT22;7592;51.088;13.732;2023-05-02T16:20:03;17.50;99.90
14993;DHT22;7592;51.088;13.732;2023-05-02T16:24:56;17.30;99.90
14993;DHT22;7592;51.088;13.732;2023-05-02T16:29:48;16.90;99.90
14993;DHT22;7592;51.088;13.732;2023-05-02T16:34:41;16.80;99.90
14993;DHT22;7592;51.088;13.732;2023-05-02T16:39:35;16.90;99.90
14993;DHT22;7592;51.088;13.732;2023-05-02T16:44:29;16.80;99.90
14993;DHT22;7592;51.088;13.732;2023-05-02T16:49:22;16.70;99.90
14993;DHT22;7592;51.088;13.732;2023-05-02T16:54:14;16.70;99.90
14993;DHT22;7592;51.088;13.732;2023-05-02T16:59:07;16.50;99.90
14993;DHT22;7592;51.088;13.732;2023-05-02T17:04:00;16.40;99.90
14993;DHT22;7592;51.088;13.732;2023-05-02T17:08:53;16.30;99.90
14993;DHT22;7592;51.088;13.732;2023-05-02T17:13:45;16.20;99.90
14993;DHT22;7592;51.088;13.732;2023-05-02T17:18:40;16.20;99.90
14993;DHT22;7592;51.088;13.732;2023-05-02T17:23:32;16.00;99.90
14993;DHT22;7592;51.088;13.732;2023-05-02T17:28:25;15.90;99.90
14993;DHT22;7592;51.088;13.732;2023-05-02T17:33:17;15.80;99.90
14993;DHT22;7592;51.088;13.732;2023-05-02T17:38:09;15.80;99.90
14993;DHT22;7592;51.088;13.732;2023-05-02T17:43:02;15.60;99.90
14993;DHT22;7592;51.088;13.732;2023-05-02T17:47:54;15.50;99.90
14993;DHT22;7592;51.088;13.732;2023-05-02T17:52:46;15.40;99.90
14993;DHT22;7592;51.088;13.732;2023-05-02T17:57:39;15.30;99.90
14993;DHT22;7592;51.088;13.732;2023-05-02T18:02:31;15.20;99.90
14993;DHT22;7592;51.088;13.732;2023-05-02T18:07:24;15.10;99.90
14993;DHT22;7592;51.088;13.732;2023-05-02T18:12:19;15.00;99.90
14993;DHT22;7592;51.088;13.732;2023-05-02T18:17:11;14.90;99.90
14993;DHT22;7592;51.088;13.732;2023-05-02T18:22:04;14.60;99.90
14993;DHT22;7592;51.088;13.732;2023-05-02T18:26:56;14.50;99.90
14993;DHT22;7592;51.088;13.732;2023-05-02T18:31:48;14.30;99.90
14993;DHT22;7592;51.088;13.732;2023-05-02T18:36:43;14.20;99.90
14993;DHT22;7592;51.088;13.732;2023-05-02T18:41:38;14.30;99.90
14993;DHT22;7592;51.088;13.732;2023-05-02T18:46:30;14.20;99.90
14993;DHT22;7592;51.088;13.732;2023-05-02T18:51:22;14.10;99.90
14993;DHT22;7592;51.088;13.732;2023-05-02T18:56:15;14.10;99.90
14993;DHT22;7592;51.088;13.732;2023-05-02T19:01:14;14.00;99.90
14993;DHT22;7592;51.088;13.732;2023-05-02T19:06:07;14.00;99.90
14993;DHT22;7592;51.088;13.732;2023-05-02T19:10:59;14.00;99.90
14993;DHT22;7592;51.088;13.732;2023-05-02T19:15:51;13.90;99.90
14993;DHT22;7592;51.088;13.732;2023-05-02T19:20:43;13.80;99.90
14993;DHT22;7592;51.088;13.732;2023-05-02T19:25:38;13.90;99.90
14993;DHT22;7592;51.088;13.732;2023-05-02T19:30:30;13.80;99.90
14993;DHT22;7592;51.088;13.732;2023-05-02T19:35:22;13.70;99.90
14993;DHT22;7592;51.088;13.732;2023-05-02T19:40:14;13.60;99.90
14993;DHT22;7592;51.088;13.732;2023-05-02T19:45:07;13.60;99.90
14993;DHT22;7592;51.088;13.732;2023-05-02T19:50:04;13.50;99.90
14993;DHT22;7592;51.088;13.732;2023-05-02T19:54:57;13.40;99.90
14993;DHT22;7592;51.088;13.732;2023-05-02T19:59:49;13.30;99.90
14993;DHT22;7592;51.088;13.732;2023-05-02T20:04:41;13.10;99.90
14993;DHT22;7592;51.088;13.732;2023-05-02T20:09:33;12.80;99.90
14993;DHT22;7592;51.088;13.732;2023-05-02T20:14:25;12.50;99.90
14993;DHT22;7592;51.088;13.732;2023-05-02T20:19:17;12.20;99.90
14993;DHT22;7592;51.088;13.732;2023-05-02T20:24:12;11.80;99.90
14993;DHT22;7592;51.088;13.732;2023-05-02T20:29:05;11.50;99.90
14993;DHT22;7592;51.088;13.732;2023-05-02T20:33:58;11.60;99.90
14993;DHT22;7592;51.088;13.732;2023-05-02T20:38:51;11.90;99.90
14993;DHT22;7592;51.088;13.732;2023-05-02T20:43:43;12.10;99.90
14993;DHT22;7592;51.088;13.732;2023-05-02T20:48:36;12.20;99.90
14993;DHT22;7592;51.088;13.732;2023-05-02T20:53:28;12.40;99.90
14993;DHT22;7592;51.088;13.732;2023-05-02T20:58:20;12.40;99.90
14993;DHT22;7592;51.088;13.732;2023-05-02T21:03:12;12.40;99.90
14993;DHT22;7592;51.088;13.732;2023-05-02T21:08:04;12.30;99.90
14993;DHT22;7592;51.088;13.732;2023-05-02T21:12:57;12.30;99.90
14993;DHT22;7592;51.088;13.732;2023-05-02T21:17:49;12.10;99.90
14993;DHT22;7592;51.088;13.732;2023-05-02T21:22:43;12.00;99.90
14993;DHT22;7592;51.088;13.732;2023-05-02T21:27:35;12.00;99.90
14993;DHT22;7592;51.088;13.732;2023-05-02T21:32:27;12.00;99.90
14993;DHT22;7592;51.088;13.732;2023-05-02T21:37:20;12.10;99.90
14993;DHT22;7592;51.088;13.732;2023-05-02T21:42:13;11.90;99.90
14993;DHT22;7592;51.088;13.732;2023-05-02T21:47:05;11.70;99.90
14993;DHT22;7592;51.088;13.732;2023-05-02T21:51:57;11.60;99.90
14993;DHT22;7592;51.088;13.732;2023-05-02T21:56:49;11.50;99.90
14993;DHT22;7592;51.088;13.732;2023-05-02T22:01:41;11.50;99.90
14993;DHT22;7592;51.088;13.732;2023-05-02T22:06:34;11.40;99.90
14993;DHT22;7592;51.088;13.732;2023-05-02T22:11:27;11.30;99.90
14993;DHT22;7592;51.088;13.732;2023-05-02T22:16:19;11.20;99.90
14993;DHT22;7592;51.088;13.732;2023-05-02T22:21:12;11.20;99.90
14993;DHT22;7592;51.088;13.732;2023-05-02T22:26:04;11.20;99.90
14993;DHT22;7592;51.088;13.732;2023-05-02T22:30:56;11.20;99.90
14993;DHT22;7592;51.088;13.732;2023-05-02T22:35:48;11.20;99.90
14993;DHT22;7592;51.088;13.732;2023-05-02T22:40:41;11.20;99.90
14993;DHT22;7592;51.088;13.732;2023-05-02T22:45:34;11.20;99.90
14993;DHT22;7592;51.088;13.732;2023-05-02T22:50:27;11.20;99.90
14993;DHT22;7592;51.088;13.732;2023-05-02T22:55:22;11.20;99.90
14993;DHT22;7592;51.088;13.732;2023-05-02T23:00:15;11.20;99.90
14993;DHT22;7592;51.088;13.732;2023-05-02T23:05:09;11.10;99.90
14993;DHT22;7592;51.088;13.732;2023-05-02T23:10:02;11.10;99.90
14993;DHT22;7592;51.088;13.732;2023-05-02T23:14:55;11.10;99.90
14993;DHT22;7592;51.088;13.732;2023-05-02T23:19:47;11.10;99.90
14993;DHT22;7592;51.088;13.732;2023-05-02T23:24:40;11.10;99.90
14993;DHT22;7592;51.088;13.732;2023-05-02T23:29:33;11.20;99.90
14993;DHT22;7592;51.088;13.732;2023-05-02T23:34:25;11.10;99.90
14993;DHT22;7592;51.088;13.732;2023-05-02T23:39:17;11.10;99.90
14993;DHT22;7592;51.088;13.732;2023-05-02T23:44:10;11.10;99.90
14993;DHT22;7592;51.088;13.732;2023-05-02T23:49:02;11.10;99.90
14993;DHT22;7592;51.088;13.732;2023-05-02T23:53:54;11.10;99.90
14993;DHT22;7592;51.088;13.732;2023-05-02T23:58:46;11.20;99.90
